Time;durP1;ratioP1;P1;durP2;ratioP2;P2;SDS_P1;SDS_P2;PMS_P1;PMS_P2;Temp;Humidity;BMP_temperature;BMP_pressure;BME280_temperature;BME280_humidity;BME280_pressure;Samples;Min_cycle;Max_cycle;Signal;HPM_P1;HPM_P2
2021/09/08 00:01:54;;;;;;;13.27;6.28;;;13.90;90.90;;;;;;4990614;28;20033;-69
2021/09/08 00:04:20;;;;;;;9.82;5.57;;;13.90;90.70;;;;;;5005968;28;20616;-67
2021/09/08 00:06:46;;;;;;;13.05;5.85;;;13.80;90.60;;;;;;5000946;28;20281;-69
2021/09/08 00:09:11;;;;;;;11.15;5.40;;;13.70;90.80;;;;;;5012488;28;20096;-69
2021/09/08 00:11:37;;;;;;;9.35;6.70;;;13.70;91.10;;;;;;5005547;28;20049;-69
2021/09/08 00:14:03;;;;;;;10.45;6.60;;;13.70;91.40;;;;;;5005846;28;20198;-69
2021/09/08 00:16:29;;;;;;;11.25;5.60;;;13.70;91.40;;;;;;5004354;28;20208;-69
2021/09/08 00:18:54;;;;;;;9.85;5.93;;;13.70;91.10;;;;;;4999896;28;20481;-69
2021/09/08 00:21:20;;;;;;;11.13;5.90;;;13.60;90.70;;;;;;5002506;28;20029;-67
2021/09/08 00:23:46;;;;;;;9.18;5.47;;;13.60;90.90;;;;;;5002700;28;20473;-69
2021/09/08 00:26:11;;;;;;;9.30;5.90;;;13.60;91.10;;;;;;5005622;28;20021;-68
2021/09/08 00:28:37;;;;;;;7.72;5.07;;;13.60;91.20;;;;;;5005299;28;20049;-69
2021/09/08 00:31:02;;;;;;;8.70;5.90;;;13.70;91.10;;;;;;4997471;28;20076;-69
2021/09/08 00:33:28;;;;;;;14.88;6.20;;;13.70;90.90;;;;;;5002656;28;20022;-69
2021/09/08 00:35:54;;;;;;;8.15;5.43;;;13.70;91.10;;;;;;5005074;28;20104;-69
2021/09/08 00:38:19;;;;;;;8.77;5.85;;;13.70;90.90;;;;;;5002899;28;20014;-68
2021/09/08 00:40:45;;;;;;;11.38;5.88;;;13.70;90.90;;;;;;5000791;28;20635;-68
2021/09/08 00:43:11;;;;;;;11.15;5.70;;;13.60;90.80;;;;;;5002258;28;20084;-68
2021/09/08 00:45:36;;;;;;;7.82;5.07;;;13.70;90.60;;;;;;5001864;28;20026;-69
2021/09/08 00:48:02;;;;;;;9.15;5.90;;;13.70;90.60;;;;;;5010286;28;20107;-68
2021/09/08 00:50:28;;;;;;;8.75;5.68;;;13.70;90.50;;;;;;5004534;28;20385;-69
2021/09/08 00:52:54;;;;;;;10.20;5.90;;;13.80;90.10;;;;;;5003770;28;20080;-69
2021/09/08 00:55:21;;;;;;;11.38;5.95;;;13.70;90.10;;;;;;5000768;28;20461;-68
2021/09/08 00:57:49;;;;;;;7.22;5.03;;;13.80;90.20;;;;;;4997041;28;20037;-69
2021/09/08 01:00:15;;;;;;;10.55;5.13;;;13.70;90.00;;;;;;4999072;28;20539;-69
2021/09/08 01:02:41;;;;;;;9.25;4.63;;;13.70;90.10;;;;;;5003167;28;20025;-68
2021/09/08 01:05:07;;;;;;;8.95;5.65;;;13.70;90.20;;;;;;5005680;28;20107;-69
2021/09/08 01:07:33;;;;;;;9.27;5.05;;;13.60;90.10;;;;;;5004480;28;20034;-69
2021/09/08 01:09:59;;;;;;;9.95;5.70;;;13.60;90.20;;;;;;5004752;28;20505;-69
2021/09/08 01:12:24;;;;;;;8.48;5.28;;;13.60;90.20;;;;;;4998450;28;20042;-68
2021/09/08 01:14:50;;;;;;;7.47;5.15;;;13.60;90.50;;;;;;4998955;28;20125;-69
2021/09/08 01:17:18;;;;;;;11.10;5.20;;;13.60;90.40;;;;;;4997744;28;20034;-69
2021/09/08 01:19:44;;;;;;;7.82;4.97;;;13.50;90.60;;;;;;5005644;28;20032;-68
2021/09/08 01:22:10;;;;;;;7.63;5.15;;;13.50;90.60;;;;;;4995643;28;20311;-69
2021/09/08 01:24:36;;;;;;;8.95;5.03;;;13.50;90.60;;;;;;4989895;28;20023;-69
2021/09/08 01:27:03;;;;;;;7.32;5.40;;;13.50;90.50;;;;;;5002886;28;20022;-68
2021/09/08 01:29:28;;;;;;;8.93;5.68;;;13.50;90.50;;;;;;5013638;28;20053;-69
2021/09/08 01:31:58;;;;;;;11.07;5.57;;;13.50;90.70;;;;;;5003529;28;20103;-68
2021/09/08 01:34:25;;;;;;;8.73;5.93;;;13.40;90.90;;;;;;4999598;28;20030;-67
2021/09/08 01:36:52;;;;;;;9.23;5.90;;;13.50;90.90;;;;;;5006865;28;20038;-68
2021/09/08 01:39:21;;;;;;;8.20;5.43;;;13.40;90.80;;;;;;4988499;28;20026;-69
2021/09/08 01:41:49;;;;;;;10.93;6.72;;;13.50;91.00;;;;;;5004793;28;20401;-67
2021/09/08 01:44:22;;;;;;;9.90;6.82;;;13.40;91.00;;;;;;5005689;28;20084;-67
2021/09/08 01:46:53;;;;;;;8.57;5.47;;;13.50;90.90;;;;;;5007064;28;20049;-66
2021/09/08 01:49:19;;;;;;;8.88;6.15;;;13.50;91.00;;;;;;4998571;28;20025;-66
2021/09/08 01:51:45;;;;;;;10.73;6.28;;;13.50;91.00;;;;;;5008066;28;20030;-69
2021/09/08 01:54:11;;;;;;;11.35;6.60;;;13.50;91.00;;;;;;5005587;28;20029;-69
2021/09/08 01:56:37;;;;;;;12.40;6.80;;;13.50;91.10;;;;;;5003684;28;20034;-68
2021/09/08 01:59:03;;;;;;;13.23;6.38;;;13.50;91.00;;;;;;5001598;28;20412;-68
2021/09/08 02:01:29;;;;;;;10.30;6.90;;;13.50;91.10;;;;;;5008268;28;20125;-67
2021/09/08 02:03:55;;;;;;;12.25;7.32;;;13.40;91.10;;;;;;4996552;28;20139;-67
2021/09/08 02:06:25;;;;;;;9.57;6.25;;;13.40;91.10;;;;;;5015278;28;20405;-69
2021/09/08 02:08:56;;;;;;;10.00;6.72;;;13.40;91.30;;;;;;5004773;28;20034;-69
2021/09/08 02:11:22;;;;;;;14.35;7.00;;;13.40;91.20;;;;;;5009359;28;20081;-69
2021/09/08 02:13:48;;;;;;;11.40;7.10;;;13.30;91.40;;;;;;5005980;28;20030;-67
2021/09/08 02:16:20;;;;;;;12.65;7.47;;;13.40;91.60;;;;;;5008824;28;20034;-69
2021/09/08 02:18:49;;;;;;;13.35;7.10;;;13.40;91.50;;;;;;5005096;28;20048;-69
2021/09/08 02:21:15;;;;;;;13.35;8.45;;;13.30;91.40;;;;;;4998979;28;20400;-67
2021/09/08 02:23:41;;;;;;;13.32;8.00;;;13.30;91.50;;;;;;5006853;28;20030;-71
2021/09/08 02:26:06;;;;;;;13.05;7.40;;;13.40;91.30;;;;;;5005943;28;20045;-69
2021/09/08 02:28:32;;;;;;;12.25;7.93;;;13.40;91.40;;;;;;5004359;28;20018;-69
2021/09/08 02:30:57;;;;;;;15.73;8.32;;;13.30;91.50;;;;;;5005910;28;20114;-68
2021/09/08 02:33:23;;;;;;;18.52;8.02;;;13.30;91.30;;;;;;5004517;28;20080;-68
2021/09/08 02:35:50;;;;;;;12.88;7.88;;;13.30;91.50;;;;;;5002446;28;20105;-69
2021/09/08 02:38:16;;;;;;;12.05;7.88;;;13.30;91.60;;;;;;5003083;28;20025;-69
2021/09/08 02:40:41;;;;;;;14.15;8.05;;;13.30;91.50;;;;;;5004553;28;20123;-68
2021/09/08 02:43:07;;;;;;;12.73;8.27;;;13.30;91.60;;;;;;5004626;28;20030;-68
2021/09/08 02:45:32;;;;;;;13.73;8.82;;;13.30;91.60;;;;;;5007019;28;20042;-68
2021/09/08 02:47:58;;;;;;;12.50;8.60;;;13.40;91.50;;;;;;5007176;28;20112;-68
2021/09/08 02:50:24;;;;;;;14.43;8.75;;;13.40;91.40;;;;;;5006505;28;20030;-69
2021/09/08 02:52:49;;;;;;;12.38;8.43;;;13.30;91.50;;;;;;5004882;28;20458;-67
2021/09/08 02:55:15;;;;;;;13.55;8.48;;;13.30;91.60;;;;;;5007936;28;20038;-69
2021/09/08 02:57:40;;;;;;;11.85;8.63;;;13.30;91.70;;;;;;5005578;28;20038;-73
2021/09/08 03:00:09;;;;;;;14.20;8.70;;;13.30;91.60;;;;;;5004429;28;20034;-69
2021/09/08 03:02:35;;;;;;;13.60;8.73;;;13.30;91.60;;;;;;5003827;28;20048;-69
2021/09/08 03:05:00;;;;;;;17.35;9.30;;;13.30;91.60;;;;;;5005697;28;20041;-69
2021/09/08 03:07:26;;;;;;;13.32;9.38;;;13.30;91.50;;;;;;5002402;28;20443;-68
2021/09/08 03:09:52;;;;;;;13.05;9.05;;;13.30;91.60;;;;;;5002714;28;20041;-67
2021/09/08 03:12:17;;;;;;;12.57;9.02;;;13.30;91.80;;;;;;5016147;28;20509;-68
2021/09/08 03:14:43;;;;;;;16.35;9.27;;;13.30;91.80;;;;;;5002961;28;20371;-69
2021/09/08 03:17:09;;;;;;;13.43;9.80;;;13.30;91.60;;;;;;5005149;28;20025;-67
2021/09/08 03:19:35;;;;;;;13.90;9.45;;;13.30;91.60;;;;;;5001980;28;20037;-68
2021/09/08 03:22:01;;;;;;;13.88;9.55;;;13.30;91.90;;;;;;4999325;28;20034;-68
2021/09/08 03:24:26;;;;;;;14.75;10.18;;;13.20;91.80;;;;;;5004425;28;20034;-69
2021/09/08 03:26:52;;;;;;;15.35;10.43;;;13.20;92.00;;;;;;5000638;28;20461;-69
2021/09/08 03:29:17;;;;;;;15.55;10.38;;;13.30;92.10;;;;;;5004602;28;20113;-69
2021/09/08 03:31:43;;;;;;;16.40;10.80;;;13.30;92.00;;;;;;5002843;28;20025;-68
2021/09/08 03:34:09;;;;;;;16.63;10.65;;;13.30;92.00;;;;;;5003871;28;20030;-68
2021/09/08 03:36:34;;;;;;;16.52;9.98;;;13.30;91.90;;;;;;5002383;28;20025;-68
2021/09/08 03:39:00;;;;;;;15.50;10.30;;;13.30;92.00;;;;;;5005209;28;20030;-68
2021/09/08 03:41:25;;;;;;;14.77;10.07;;;13.30;91.90;;;;;;5004398;28;20034;-68
2021/09/08 03:43:51;;;;;;;14.88;10.35;;;13.30;92.00;;;;;;5007334;28;20572;-68
2021/09/08 03:46:16;;;;;;;17.90;10.38;;;13.30;91.90;;;;;;5009070;28;20037;-69
2021/09/08 03:48:42;;;;;;;19.13;10.93;;;13.30;92.20;;;;;;5003191;28;20492;-68
2021/09/08 03:51:10;;;;;;;17.88;10.50;;;13.30;92.00;;;;;;4998130;28;20084;-69
2021/09/08 03:53:36;;;;;;;14.15;10.50;;;13.30;92.10;;;;;;5001762;28;20072;-69
2021/09/08 03:56:02;;;;;;;15.35;10.95;;;13.20;92.20;;;;;;4998334;28;20109;-69
2021/09/08 03:58:27;;;;;;;24.58;10.90;;;13.20;92.30;;;;;;5001864;28;20025;-69
2021/09/08 04:00:53;;;;;;;17.15;12.00;;;13.20;92.30;;;;;;5008223;28;20032;-68
2021/09/08 04:03:19;;;;;;;17.20;11.52;;;13.20;92.50;;;;;;4999434;28;20137;-68
2021/09/08 04:05:44;;;;;;;18.48;11.38;;;13.20;92.40;;;;;;5004167;28;20285;-68
2021/09/08 04:08:10;;;;;;;17.00;11.07;;;13.30;92.60;;;;;;5002457;28;20030;-69
2021/09/08 04:10:36;;;;;;;19.65;11.80;;;13.20;92.40;;;;;;5004891;28;20084;-69
2021/09/08 04:13:01;;;;;;;14.77;11.07;;;13.20;92.40;;;;;;4996177;28;20033;-69
2021/09/08 04:15:27;;;;;;;18.17;12.25;;;13.10;92.50;;;;;;5003700;28;20022;-67
2021/09/08 04:17:52;;;;;;;19.85;12.23;;;13.10;92.70;;;;;;4997279;28;21359;-69
2021/09/08 04:20:18;;;;;;;25.50;11.45;;;13.10;92.70;;;;;;5005098;28;20377;-65
2021/09/08 04:22:43;;;;;;;19.02;11.98;;;13.10;92.60;;;;;;4999408;28;20026;-65
2021/09/08 04:25:10;;;;;;;19.52;12.50;;;13.10;92.80;;;;;;5005184;28;20034;-66
2021/09/08 04:27:35;;;;;;;15.50;11.82;;;13.10;92.80;;;;;;5006444;28;20064;-66
2021/09/08 04:30:01;;;;;;;20.52;12.05;;;13.00;93.00;;;;;;5000711;28;20058;-65
2021/09/08 04:32:26;;;;;;;18.65;11.95;;;13.00;93.00;;;;;;4996214;28;20424;-65
2021/09/08 04:34:52;;;;;;;18.10;13.13;;;13.00;93.00;;;;;;5002987;28;20034;-65
2021/09/08 04:37:17;;;;;;;20.02;12.52;;;13.00;93.00;;;;;;4995829;28;20033;-65
2021/09/08 04:39:44;;;;;;;19.73;12.75;;;12.90;92.90;;;;;;5002914;28;20030;-63
2021/09/08 04:42:10;;;;;;;18.58;12.32;;;13.00;93.10;;;;;;5001596;28;20440;-65
2021/09/08 04:44:35;;;;;;;19.20;13.10;;;13.00;93.20;;;;;;5007999;28;20038;-65
2021/09/08 04:47:01;;;;;;;19.98;13.07;;;12.90;93.00;;;;;;5003526;28;20041;-66
2021/09/08 04:49:26;;;;;;;19.50;12.27;;;12.90;93.10;;;;;;5004163;28;20509;-66
2021/09/08 04:51:53;;;;;;;16.73;11.65;;;12.90;93.20;;;;;;5002275;28;20485;-63
2021/09/08 04:54:18;;;;;;;16.20;11.45;;;12.90;93.30;;;;;;5002716;28;20049;-65
2021/09/08 04:56:44;;;;;;;18.90;12.65;;;12.90;93.40;;;;;;4995418;28;20469;-66
2021/09/08 04:59:09;;;;;;;22.70;12.63;;;12.90;93.40;;;;;;4996950;28;20022;-65
2021/09/08 05:01:35;;;;;;;18.70;11.95;;;12.90;93.40;;;;;;4995074;28;20030;-65
2021/09/08 05:04:00;;;;;;;17.55;12.18;;;12.90;93.20;;;;;;5002576;28;20085;-65
2021/09/08 05:06:26;;;;;;;16.77;12.05;;;12.90;93.40;;;;;;4997260;28;20037;-66
2021/09/08 05:08:52;;;;;;;19.80;12.77;;;12.90;93.50;;;;;;4997787;28;20192;-65
2021/09/08 05:11:17;;;;;;;22.83;13.30;;;12.90;93.50;;;;;;4997942;28;20018;-65
2021/09/08 05:13:43;;;;;;;17.10;12.27;;;12.90;93.40;;;;;;5004863;28;20030;-66
2021/09/08 05:16:09;;;;;;;19.20;11.90;;;12.90;93.20;;;;;;5008236;28;20483;-66
2021/09/08 05:18:35;;;;;;;21.13;13.38;;;12.90;93.30;;;;;;5005437;28;20118;-64
2021/09/08 05:21:01;;;;;;;20.13;12.90;;;12.90;93.50;;;;;;5000856;28;20572;-66
2021/09/08 05:23:26;;;;;;;18.20;12.80;;;12.90;93.30;;;;;;5005077;28;20030;-64
2021/09/08 05:25:52;;;;;;;18.00;12.95;;;12.90;93.40;;;;;;5006890;28;20401;-64
2021/09/08 05:28:19;;;;;;;16.38;12.38;;;12.90;93.40;;;;;;5002718;28;20033;-65
2021/09/08 05:30:45;;;;;;;24.52;12.77;;;12.90;93.30;;;;;;5006738;28;20018;-65
2021/09/08 05:33:11;;;;;;;21.52;13.20;;;13.00;93.30;;;;;;5005617;28;20026;-62
2021/09/08 05:35:36;;;;;;;18.50;13.15;;;13.00;93.30;;;;;;5004914;28;20469;-66
2021/09/08 05:38:02;;;;;;;20.50;13.02;;;13.00;93.10;;;;;;4997623;28;20032;-65
2021/09/08 05:40:27;;;;;;;20.45;12.63;;;13.10;93.10;;;;;;5000779;28;20528;-65
2021/09/08 05:42:53;;;;;;;21.88;13.50;;;13.10;93.10;;;;;;5005782;28;20038;-65
2021/09/08 05:45:19;;;;;;;20.45;13.38;;;13.30;92.90;;;;;;5005741;28;20022;-66
2021/09/08 05:47:44;;;;;;;18.17;12.10;;;13.30;92.70;;;;;;4994956;28;20034;-65
2021/09/08 05:50:10;;;;;;;19.80;13.27;;;13.30;92.70;;;;;;5002801;28;20034;-64
2021/09/08 05:52:36;;;;;;;21.70;12.93;;;13.40;92.60;;;;;;5003436;28;20048;-63
2021/09/08 05:55:01;;;;;;;19.02;12.65;;;13.50;92.20;;;;;;4988290;28;20056;-65
2021/09/08 05:57:27;;;;;;;19.95;13.00;;;13.50;92.10;;;;;;4997016;28;20049;-65
2021/09/08 05:59:52;;;;;;;20.83;12.55;;;13.60;92.00;;;;;;5002625;28;20129;-62
2021/09/08 06:02:18;;;;;;;20.02;13.30;;;13.60;92.00;;;;;;4997306;28;20529;-66
2021/09/08 06:04:44;;;;;;;21.63;13.07;;;13.70;91.80;;;;;;5005395;28;20036;-65
2021/09/08 06:07:09;;;;;;;19.92;12.57;;;13.80;91.70;;;;;;5005659;28;20026;-65
2021/09/08 06:09:35;;;;;;;20.48;12.57;;;13.90;91.50;;;;;;5001207;28;20397;-64
2021/09/08 06:12:00;;;;;;;22.95;13.00;;;14.00;91.40;;;;;;5006550;28;20069;-66
2021/09/08 06:14:26;;;;;;;18.83;12.77;;;14.00;91.20;;;;;;5002488;28;20046;-64
2021/09/08 06:16:52;;;;;;;19.05;12.88;;;14.10;91.10;;;;;;5005843;28;20116;-62
2021/09/08 06:19:17;;;;;;;20.00;12.98;;;14.20;91.00;;;;;;5004661;28;20036;-64
2021/09/08 06:21:43;;;;;;;18.55;13.32;;;14.40;90.30;;;;;;5000071;28;20030;-66
2021/09/08 06:24:10;;;;;;;23.17;13.48;;;14.50;90.70;;;;;;5005253;28;20524;-66
2021/09/08 06:26:36;;;;;;;16.83;12.43;;;14.60;89.90;;;;;;5006059;28;20033;-64
2021/09/08 06:29:01;;;;;;;18.17;12.63;;;14.60;89.80;;;;;;5004486;28;20026;-65
2021/09/08 06:31:27;;;;;;;18.55;12.32;;;14.70;90.00;;;;;;5006400;28;20025;-65
2021/09/08 06:33:52;;;;;;;17.90;13.23;;;14.80;90.10;;;;;;5001196;28;20034;-63
2021/09/08 06:36:18;;;;;;;20.08;12.55;;;15.00;89.10;;;;;;5007875;28;20022;-66
2021/09/08 06:38:44;;;;;;;20.27;13.38;;;15.10;88.90;;;;;;5002497;28;20041;-64
2021/09/08 06:41:09;;;;;;;19.88;13.82;;;15.10;89.30;;;;;;5006789;28;20397;-64
2021/09/08 06:43:35;;;;;;;17.25;12.15;;;15.30;88.60;;;;;;5003389;28;20077;-63
2021/09/08 06:46:01;;;;;;;18.38;12.25;;;15.40;88.80;;;;;;5000900;28;20115;-65
2021/09/08 06:48:26;;;;;;;20.30;12.02;;;15.50;87.90;;;;;;4997736;28;20022;-64
2021/09/08 06:50:52;;;;;;;16.48;10.90;;;15.60;87.50;;;;;;4985178;28;20029;-65
2021/09/08 06:53:17;;;;;;;16.85;10.70;;;15.60;87.40;;;;;;4994808;28;20097;-64
2021/09/08 06:55:43;;;;;;;17.40;10.80;;;15.70;87.10;;;;;;5003681;28;20019;-63
2021/09/08 06:58:09;;;;;;;15.27;11.02;;;15.80;86.90;;;;;;5003095;28;20038;-65
2021/09/08 07:00:34;;;;;;;15.90;9.82;;;15.90;86.60;;;;;;5003292;28;20038;-65
2021/09/08 07:03:00;;;;;;;16.60;9.05;;;16.00;86.60;;;;;;5002335;28;20030;-64
2021/09/08 07:05:26;;;;;;;13.10;9.35;;;16.10;85.40;;;;;;4989772;28;20653;-67
2021/09/08 07:07:51;;;;;;;13.90;9.20;;;16.20;84.90;;;;;;5000725;28;20092;-62
2021/09/08 07:10:17;;;;;;;14.07;8.70;;;16.30;85.40;;;;;;5003951;28;20044;-65
2021/09/08 07:12:43;;;;;;;13.32;8.52;;;16.40;84.80;;;;;;5004150;28;20496;-65
2021/09/08 07:15:09;;;;;;;14.77;9.10;;;16.50;84.70;;;;;;5002732;28;20384;-66
2021/09/08 07:17:35;;;;;;;14.88;8.95;;;16.60;84.40;;;;;;4999637;28;20053;-63
2021/09/08 07:20:01;;;;;;;13.18;8.63;;;16.60;84.20;;;;;;5007449;28;20493;-66
2021/09/08 07:22:26;;;;;;;13.23;8.35;;;16.70;84.50;;;;;;4994065;28;20044;-64
2021/09/08 07:24:52;;;;;;;14.65;8.52;;;16.90;84.00;;;;;;4997925;28;20037;-65
2021/09/08 07:27:17;;;;;;;16.83;8.98;;;17.00;84.00;;;;;;5002815;28;20034;-65
2021/09/08 07:29:43;;;;;;;13.55;8.90;;;17.10;83.80;;;;;;5007183;28;20393;-66
2021/09/08 07:32:09;;;;;;;11.63;8.05;;;17.10;82.90;;;;;;5003595;28;20385;-63
2021/09/08 07:34:35;;;;;;;13.98;7.95;;;17.30;82.90;;;;;;4999240;28;20022;-63
2021/09/08 07:37:01;;;;;;;14.05;8.10;;;17.30;82.60;;;;;;4994689;28;20255;-66
2021/09/08 07:39:26;;;;;;;11.38;7.95;;;17.50;82.00;;;;;;4998137;28;20041;-63
2021/09/08 07:41:52;;;;;;;12.52;8.13;;;17.50;81.90;;;;;;4998861;28;20524;-66
2021/09/08 07:44:18;;;;;;;14.52;7.78;;;17.60;81.20;;;;;;4993625;28;20029;-64
2021/09/08 07:46:44;;;;;;;11.10;8.15;;;17.70;81.50;;;;;;5002291;28;20072;-66
2021/09/08 07:49:09;;;;;;;13.40;8.10;;;17.80;81.00;;;;;;4994202;28;20022;-65
2021/09/08 07:51:35;;;;;;;11.15;7.90;;;18.00;80.20;;;;;;4996714;28;20077;-65
2021/09/08 07:54:00;;;;;;;11.32;7.97;;;18.20;78.90;;;;;;4998741;28;20292;-64
2021/09/08 07:56:26;;;;;;;11.85;7.72;;;18.40;79.50;;;;;;5001245;28;20441;-65
2021/09/08 07:58:52;;;;;;;11.43;7.85;;;18.50;78.80;;;;;;4996090;28;20035;-65
2021/09/08 08:01:18;;;;;;;12.93;7.53;;;18.70;78.20;;;;;;4996924;28;20033;-62
2021/09/08 08:03:44;;;;;;;13.88;8.07;;;18.90;78.00;;;;;;4998667;28;20037;-65
2021/09/08 08:06:09;;;;;;;11.48;7.43;;;19.00;75.40;;;;;;5002701;28;20033;-64
2021/09/08 08:08:35;;;;;;;11.90;7.82;;;19.20;75.90;;;;;;4998953;28;20202;-66
2021/09/08 08:11:00;;;;;;;15.93;7.75;;;19.30;76.90;;;;;;4994183;28;20088;-63
2021/09/08 08:13:27;;;;;;;12.63;7.75;;;19.50;75.90;;;;;;4999088;28;20018;-62
2021/09/08 08:15:53;;;;;;;12.93;7.00;;;19.60;74.80;;;;;;4999887;28;20541;-65
2021/09/08 08:18:18;;;;;;;11.88;7.32;;;19.80;75.00;;;;;;4999948;28;20030;-64
2021/09/08 08:20:44;;;;;;;13.60;7.22;;;20.00;72.90;;;;;;4997806;28;20076;-65
2021/09/08 08:23:11;;;;;;;10.07;6.38;;;20.00;71.70;;;;;;5002994;28;20120;-65
2021/09/08 08:25:36;;;;;;;11.68;6.40;;;20.20;72.40;;;;;;5005406;28;20105;-65
2021/09/08 08:28:04;;;;;;;9.70;6.10;;;20.30;72.50;;;;;;5001474;28;20117;-63
2021/09/08 08:30:30;;;;;;;11.38;6.38;;;20.50;70.30;;;;;;5000341;28;20563;-64
2021/09/08 08:32:56;;;;;;;9.45;5.88;;;20.60;72.30;;;;;;5004519;28;20030;-64
2021/09/08 08:35:22;;;;;;;14.80;6.78;;;20.80;69.90;;;;;;5001169;28;20395;-63
2021/09/08 08:37:50;;;;;;;10.80;5.93;;;20.80;69.00;;;;;;5009475;28;20025;-63
2021/09/08 08:40:16;;;;;;;11.82;6.00;;;21.00;69.00;;;;;;5005833;28;20375;-63
2021/09/08 08:42:43;;;;;;;11.55;5.93;;;21.00;68.90;;;;;;5003560;28;20270;-64
2021/09/08 08:45:09;;;;;;;9.10;5.88;;;21.20;68.40;;;;;;5004811;28;20037;-64
2021/09/08 08:47:35;;;;;;;9.80;5.45;;;21.30;67.70;;;;;;5005778;28;20396;-65
2021/09/08 08:50:01;;;;;;;7.78;5.13;;;21.50;69.50;;;;;;5005265;28;20117;-63
2021/09/08 08:52:27;;;;;;;9.43;5.63;;;21.70;68.70;;;;;;5002647;28;20022;-63
2021/09/08 08:54:53;;;;;;;7.53;4.82;;;21.60;68.40;;;;;;5011311;28;20609;-65
2021/09/08 08:57:19;;;;;;;9.35;5.50;;;21.60;66.90;;;;;;5007690;28;20076;-65
2021/09/08 08:59:49;;;;;;;7.88;5.10;;;21.50;66.30;;;;;;5002084;28;20073;-65
2021/09/08 09:02:32;;;;;;;8.10;4.93;;;21.70;66.90;;;;;;5007706;28;20496;-66
2021/09/08 09:05:00;;;;;;;8.23;5.05;;;21.80;66.20;;;;;;5009469;28;20117;-66
2021/09/08 09:07:42;;;;;;;8.20;4.70;;;21.90;64.30;;;;;;5008621;28;20030;-65
2021/09/08 09:10:11;;;;;;;7.47;4.65;;;22.10;66.10;;;;;;4994905;28;20397;-63
2021/09/08 09:12:40;;;;;;;9.77;4.63;;;22.00;64.80;;;;;;5006717;28;20026;-63
2021/09/08 09:15:11;;;;;;;9.82;5.03;;;22.30;63.90;;;;;;5009889;28;20117;-64
2021/09/08 09:17:38;;;;;;;6.80;4.60;;;22.30;65.20;;;;;;5003488;28;20034;-62
2021/09/08 09:20:10;;;;;;;8.50;4.15;;;22.70;65.10;;;;;;5008720;28;20030;-65
2021/09/08 09:22:50;;;;;;;7.20;4.25;;;22.60;59.90;;;;;;5006003;28;20492;-65
2021/09/08 09:25:18;;;;;;;7.40;3.97;;;22.60;62.40;;;;;;5007604;28;20543;-65
2021/09/08 09:27:58;;;;;;;9.05;4.93;;;23.00;64.80;;;;;;5007680;28;20430;-65
2021/09/08 09:30:26;;;;;;;6.40;4.28;;;23.00;61.40;;;;;;4999238;28;20025;-63
2021/09/08 09:32:54;;;;;;;8.25;4.30;;;23.30;64.00;;;;;;5002491;28;20054;-65
2021/09/08 09:35:22;;;;;;;6.43;4.20;;;23.40;62.10;;;;;;5011305;28;20018;-65
2021/09/08 09:37:53;;;;;;;8.52;4.18;;;23.40;60.10;;;;;;5003829;28;20034;-62
2021/09/08 09:40:27;;;;;;;;;;;23.00;60.20;;;;;;5010096;28;20416;-65
2021/09/08 09:42:53;;;;;;;6.22;3.20;;;23.30;60.90;;;;;;4990174;28;19960;-65
2021/09/08 09:45:20;;;;;;;7.53;3.97;;;23.40;59.30;;;;;;5009210;28;20029;-65
2021/09/08 09:47:47;;;;;;;7.25;4.18;;;23.70;61.10;;;;;;5005115;28;20105;-66
2021/09/08 09:50:22;;;;;;;6.82;3.90;;;23.70;60.10;;;;;;5005181;28;20042;-65
2021/09/08 09:52:49;;;;;;;6.47;3.90;;;23.90;58.70;;;;;;5004334;28;20081;-65
2021/09/08 09:55:16;;;;;;;9.27;4.40;;;23.50;57.60;;;;;;5003500;28;20427;-64
2021/09/08 09:57:42;;;;;;;26.13;11.10;;;23.50;58.60;;;;;;5007127;28;20068;-64
2021/09/08 10:00:08;;;;;;;6.18;4.20;;;23.70;58.90;;;;;;5007212;28;20026;-63
2021/09/08 10:02:34;;;;;;;8.60;4.53;;;23.70;57.20;;;;;;5005076;28;20436;-63
2021/09/08 10:05:00;;;;;;;9.15;5.57;;;24.00;58.20;;;;;;5005743;28;20239;-63
2021/09/08 10:07:26;;;;;;;7.13;4.07;;;24.20;56.50;;;;;;5011488;28;20022;-66
2021/09/08 10:10:01;;;;;;;7.65;3.50;;;23.90;55.20;;;;;;5005369;28;20113;-66
2021/09/08 10:12:44;;;;;;;6.53;4.07;;;24.20;56.00;;;;;;5003876;28;20018;-64
2021/09/08 10:15:12;;;;;;;8.15;3.83;;;24.20;55.90;;;;;;5007094;28;20033;-65
2021/09/08 10:17:43;;;;;;;8.93;4.38;;;24.40;56.20;;;;;;5000822;28;20117;-66
2021/09/08 10:20:11;;;;;;;8.48;4.57;;;24.30;53.30;;;;;;5000962;28;20028;-63
2021/09/08 10:22:42;;;;;;;6.78;3.88;;;24.40;55.30;;;;;;5004848;28;20070;-64
2021/09/08 10:25:11;;;;;;;8.02;4.30;;;24.60;57.50;;;;;;5007583;28;20037;-62
2021/09/08 10:27:38;;;;;;;7.65;4.10;;;24.50;54.80;;;;;;5011520;28;20544;-66
2021/09/08 10:30:04;;;;;;;6.60;3.92;;;24.70;54.30;;;;;;5006833;28;20029;-65
2021/09/08 10:32:31;;;;;;;8.43;3.75;;;24.60;54.70;;;;;;5001869;28;20022;-64
2021/09/08 10:34:57;;;;;;;6.45;3.45;;;24.90;56.10;;;;;;5004728;28;20030;-67
2021/09/08 10:37:23;;;;;;;4.35;2.90;;;25.00;53.50;;;;;;4997794;28;20404;-66
2021/09/08 10:39:49;;;;;;;6.20;3.13;;;25.00;52.30;;;;;;5005762;28;20025;-65
2021/09/08 10:42:15;;;;;;;7.53;3.58;;;25.20;52.50;;;;;;5003352;28;20022;-65
2021/09/08 10:44:48;;;;;;;5.65;3.50;;;24.90;53.50;;;;;;5002593;28;20133;-63
2021/09/08 10:47:17;;;;;;;5.72;3.55;;;25.30;51.00;;;;;;5008078;28;20448;-65
2021/09/08 10:49:42;;;;;;;5.22;3.22;;;25.20;51.70;;;;;;5004205;28;20054;-64
2021/09/08 10:52:29;;;;;;;6.85;3.70;;;25.40;50.70;;;;;;5002736;28;20100;-65
2021/09/08 10:54:54;;;;;;;6.05;3.40;;;25.30;53.00;;;;;;5006270;28;20292;-65
2021/09/08 10:57:38;;;;;;;6.70;3.70;;;25.60;53.60;;;;;;5006766;28;20497;-64
2021/09/08 11:00:05;;;;;;;6.82;2.90;;;25.60;50.70;;;;;;5005877;28;20029;-64
2021/09/08 11:02:31;;;;;;;4.68;2.92;;;25.80;51.10;;;;;;5006258;28;20057;-64
2021/09/08 11:04:59;;;;;;;5.38;2.80;;;25.20;49.30;;;;;;5014333;28;20030;-64
2021/09/08 11:07:25;;;;;;;5.45;2.75;;;25.50;51.20;;;;;;5003165;28;20076;-62
2021/09/08 11:09:51;;;;;;;3.78;2.67;;;25.80;49.60;;;;;;5004707;28;20030;-64
2021/09/08 11:12:16;;;;;;;4.57;2.88;;;25.70;49.00;;;;;;5003016;28;20032;-64
2021/09/08 11:14:52;;;;;;;5.47;2.80;;;25.90;46.80;;;;;;5006818;28;20105;-64
2021/09/08 11:17:27;;;;;;;4.35;2.70;;;25.90;47.50;;;;;;5003869;28;20030;-65
2021/09/08 11:19:55;;;;;;;5.18;2.80;;;25.80;46.90;;;;;;5005947;28;20030;-63
2021/09/08 11:22:20;;;;;;;4.75;2.90;;;25.60;49.00;;;;;;5002434;28;20148;-65
2021/09/08 11:25:00;;;;;;;4.38;2.72;;;25.90;46.50;;;;;;5006633;28;20471;-65
2021/09/08 11:27:26;;;;;;;5.47;3.03;;;26.40;47.60;;;;;;5004684;28;20061;-64
2021/09/08 11:30:10;;;;;;;7.13;3.00;;;26.40;44.20;;;;;;5005965;28;20053;-63
2021/09/08 11:32:56;;;;;;;5.55;3.25;;;26.50;45.10;;;;;;5004227;28;20128;-66
2021/09/08 11:35:42;;;;;;;7.75;2.97;;;26.60;47.00;;;;;;5006549;28;20397;-66
2021/09/08 11:38:29;;;;;;;5.28;2.97;;;26.80;48.10;;;;;;5003494;28;20030;-65
2021/09/08 11:41:04;;;;;;;4.18;2.55;;;27.50;45.70;;;;;;5005199;28;20033;-66
2021/09/08 11:43:36;;;;;;;5.15;2.90;;;27.00;44.70;;;;;;5000875;28;20033;-66
2021/09/08 11:46:31;;;;;;;4.72;2.70;;;27.60;46.10;;;;;;5004365;28;20037;-65
2021/09/08 11:49:07;;;;;;;3.92;2.70;;;27.40;43.90;;;;;;4998069;28;20038;-65
2021/09/08 11:51:38;;;;;;;5.05;2.63;;;27.90;43.60;;;;;;5004075;28;20034;-65
2021/09/08 11:54:07;;;;;;;8.18;3.30;;;28.10;45.90;;;;;;5005159;28;20041;-64
2021/09/08 11:56:33;;;;;;;5.65;2.90;;;28.30;44.10;;;;;;5001151;28;20022;-64
2021/09/08 11:59:01;;;;;;;6.00;3.10;;;28.10;42.10;;;;;;5004934;28;20069;-65
2021/09/08 12:01:33;;;;;;;5.10;2.80;;;28.40;41.60;;;;;;5005992;28;20033;-63
2021/09/08 12:04:00;;;;;;;4.80;2.75;;;28.30;43.50;;;;;;5005012;28;20092;-64
2021/09/08 12:06:27;;;;;;;4.30;2.85;;;28.50;42.50;;;;;;5005139;28;20080;-65
2021/09/08 12:08:59;;;;;;;7.50;3.35;;;28.80;43.50;;;;;;5004084;28;20354;-64
2021/09/08 12:11:47;;;;;;;4.90;2.95;;;28.50;41.30;;;;;;5004287;28;20388;-65
2021/09/08 12:14:15;;;;;;;4.97;3.10;;;28.50;43.00;;;;;;5010989;28;20022;-66
2021/09/08 12:16:41;;;;;;;5.80;3.38;;;28.50;40.60;;;;;;5003738;28;20497;-65
2021/09/08 12:19:18;;;;;;;6.75;2.95;;;28.40;41.60;;;;;;5004322;28;20062;-65
2021/09/08 12:21:45;;;;;;;5.25;2.83;;;29.10;41.10;;;;;;4997715;28;20025;-65
2021/09/08 12:24:19;;;;;;;6.22;3.13;;;28.70;41.50;;;;;;5005290;28;20065;-65
2021/09/08 12:26:44;;;;;;;4.82;2.90;;;29.10;41.50;;;;;;5003570;28;20061;-65
2021/09/08 12:29:10;;;;;;;6.03;3.22;;;29.50;39.10;;;;;;5004917;28;20057;-65
2021/09/08 12:31:55;;;;;;;8.00;3.20;;;29.40;41.60;;;;;;4999468;28;20022;-62
2021/09/08 12:34:21;;;;;;;6.38;3.80;;;29.40;38.80;;;;;;5003422;28;20044;-64
2021/09/08 12:36:48;;;;;;;10.57;4.15;;;29.80;39.90;;;;;;5001441;28;20655;-63
2021/09/08 12:39:21;;;;;;;6.93;3.67;;;29.50;38.70;;;;;;4993130;28;20033;-65